Time;durP1;ratioP1;P1;durP2;ratioP2;P2;SDS_P1;SDS_P2;PMS_P1;PMS_P2;Temp;Humidity;BMP_temperature;BMP_pressure;BME280_temperature;BME280_humidity;BME280_pressure;Samples;Min_cycle;Max_cycle;Signal;HPM_P1;HPM_P2
2021/12/31 20:12:31;;;;;;;26.47;15.13;;;;;;;9.61;100.00;99188.13;5088871;28;20405;-63
2021/12/31 20:14:57;;;;;;;29.13;16.27;;;;;;;9.66;100.00;99191.91;5088988;28;20032;-65
2021/12/31 20:17:22;;;;;;;28.07;16.57;;;;;;;9.60;100.00;99195.31;5088830;28;20024;-64
2021/12/31 20:19:48;;;;;;;28.27;17.00;;;;;;;9.60;100.00;99207.81;5088843;28;20045;-64
2021/12/31 20:22:15;;;;;;;28.40;16.63;;;;;;;9.58;100.00;99220.53;5088853;28;20025;-64
2021/12/31 20:24:40;;;;;;;30.97;17.80;;;;;;;9.67;100.00;99212.25;5088729;28;20035;-65
2021/12/31 20:27:06;;;;;;;32.93;18.87;;;;;;;9.65;100.00;99203.59;5088647;28;20032;-64
2021/12/31 20:29:31;;;;;;;26.80;16.27;;;;;;;9.55;100.00;99220.91;5085295;28;20036;-64
2021/12/31 20:31:57;;;;;;;25.67;15.30;;;;;;;9.52;100.00;99215.94;5087853;28;20059;-66
2021/12/31 20:34:22;;;;;;;32.37;18.97;;;;;;;9.32;100.00;99221.88;5087530;28;20056;-64
2021/12/31 20:36:48;;;;;;;37.67;22.93;;;;;;;9.40;100.00;99219.09;5087958;28;20032;-64
2021/12/31 20:39:14;;;;;;;39.10;24.43;;;;;;;9.23;100.00;99225.63;5088191;28;20404;-66
2021/12/31 20:41:40;;;;;;;34.60;20.57;;;;;;;9.12;100.00;99219.94;5086436;28;20035;-65
2021/12/31 20:44:06;;;;;;;37.50;21.83;;;;;;;9.13;100.00;99221.59;5087848;28;20103;-65
2021/12/31 20:46:33;;;;;;;35.80;21.37;;;;;;;8.96;100.00;99227.16;5085973;28;20085;-65
2021/12/31 20:48:59;;;;;;;37.83;21.87;;;;;;;8.96;100.00;99248.47;5087291;28;20412;-67
2021/12/31 20:51:24;;;;;;;35.23;21.37;;;;;;;8.96;100.00;99252.97;5088061;28;20081;-67
2021/12/31 20:53:50;;;;;;;38.10;22.17;;;;;;;8.89;100.00;99254.69;5087285;28;20080;-66
2021/12/31 20:56:15;;;;;;;37.47;20.70;;;;;;;8.93;100.00;99263.97;5087993;28;20028;-67
2021/12/31 20:58:41;;;;;;;31.47;19.70;;;;;;;8.98;100.00;99267.78;5086712;28;20032;-66
2021/12/31 21:01:10;;;;;;;34.97;20.60;;;;;;;8.66;100.00;99278.72;5088049;28;20084;-66
2021/12/31 21:03:35;;;;;;;35.97;20.83;;;;;;;8.54;100.00;99282.84;5087944;28;20055;-67
2021/12/31 21:06:01;;;;;;;36.17;22.23;;;;;;;8.46;100.00;99283.75;5087923;28;20121;-66
2021/12/31 21:08:26;;;;;;;41.07;22.73;;;;;;;8.36;100.00;99285.81;5086782;28;20413;-67
2021/12/31 21:10:52;;;;;;;48.13;28.13;;;;;;;8.33;100.00;99288.84;5087438;28;20543;-67
2021/12/31 21:13:17;;;;;;;66.37;37.17;;;;;;;8.11;100.00;99300.28;5087655;28;20036;-67
2021/12/31 21:15:43;;;;;;;60.30;35.53;;;;;;;7.97;100.00;99299.19;5087557;28;20055;-66
2021/12/31 21:18:08;;;;;;;48.87;28.30;;;;;;;7.79;100.00;99309.28;5087591;28;20103;-65
2021/12/31 21:20:34;;;;;;;50.07;28.63;;;;;;;7.77;100.00;99313.97;5087510;28;20025;-66
2021/12/31 21:23:00;;;;;;;48.03;27.33;;;;;;;7.79;100.00;99320.75;5078498;28;20021;-66
2021/12/31 21:25:28;;;;;;;48.77;28.17;;;;;;;7.74;100.00;99317.78;5074066;28;20374;-66
2021/12/31 21:27:55;;;;;;;50.90;29.63;;;;;;;7.65;100.00;99310.84;5073775;28;20099;-67
2021/12/31 21:30:20;;;;;;;44.83;24.70;;;;;;;7.70;100.00;99327.13;5073851;28;20029;-67
2021/12/31 21:32:46;;;;;;;43.87;23.50;;;;;;;7.62;100.00;99329.81;5073845;28;20027;-67
2021/12/31 21:35:12;;;;;;;43.97;23.50;;;;;;;7.80;100.00;99335.72;5073746;28;20035;-67
2021/12/31 21:37:40;;;;;;;39.40;21.33;;;;;;;7.79;100.00;99334.06;5073258;28;20081;-67
2021/12/31 21:40:10;;;;;;;35.57;21.60;;;;;;;7.74;100.00;99333.75;5073958;28;20024;-67
2021/12/31 21:42:37;;;;;;;40.20;23.40;;;;;;;7.65;100.00;99329.47;5073542;28;20052;-67
2021/12/31 21:45:05;;;;;;;45.03;24.50;;;;;;;7.72;100.00;99324.31;5073004;28;20517;-67
2021/12/31 21:47:35;;;;;;;36.00;21.83;;;;;;;7.87;100.00;99320.72;5073719;28;20102;-66
2021/12/31 21:50:06;;;;;;;42.00;23.93;;;;;;;7.94;100.00;99319.03;5072752;28;20071;-66
2021/12/31 21:52:32;;;;;;;38.67;22.70;;;;;;;8.00;100.00;99314.81;5070884;28;20036;-66
2021/12/31 21:54:58;;;;;;;39.20;22.57;;;;;;;7.81;100.00;99331.22;5072935;28;20106;-66
2021/12/31 21:57:23;;;;;;;37.07;20.73;;;;;;;7.61;100.00;99338.81;5072839;28;20074;-67
2021/12/31 21:59:49;;;;;;;33.40;19.80;;;;;;;7.55;100.00;99337.66;5072813;28;20024;-66
2021/12/31 22:02:14;;;;;;;34.27;20.17;;;;;;;7.48;100.00;99338.53;5073341;28;20059;-65
2021/12/31 22:04:40;;;;;;;34.50;20.47;;;;;;;7.56;100.00;99341.97;5072984;28;20457;-66
2021/12/31 22:07:06;;;;;;;38.40;23.03;;;;;;;7.60;100.00;99345.13;5072956;28;20020;-66
2021/12/31 22:09:31;;;;;;;40.27;23.87;;;;;;;7.64;100.00;99354.41;5072492;28;20044;-65
2021/12/31 22:11:57;;;;;;;47.27;26.57;;;;;;;7.80;100.00;99359.66;5072843;28;20044;-66
2021/12/31 22:14:22;;;;;;;42.23;25.93;;;;;;;7.99;100.00;99347.75;5073021;28;20082;-65
2021/12/31 22:16:48;;;;;;;37.90;21.20;;;;;;;8.25;100.00;99344.78;5072895;28;20029;-65
2021/12/31 22:19:13;;;;;;;42.57;25.50;;;;;;;8.35;100.00;99340.09;5072970;28;20388;-65
2021/12/31 22:21:39;;;;;;;26.47;15.37;;;;;;;8.57;100.00;99343.75;5072967;28;20021;-65
2021/12/31 22:24:05;;;;;;;23.57;14.23;;;;;;;8.70;100.00;99344.81;5072968;28;20020;-65
2021/12/31 22:26:30;;;;;;;22.53;13.37;;;;;;;8.81;100.00;99351.53;5072938;28;20032;-65
2021/12/31 22:28:56;;;;;;;21.87;13.20;;;;;;;8.91;100.00;99346.78;5072781;28;20563;-65
2021/12/31 22:31:22;;;;;;;21.90;13.30;;;;;;;8.98;100.00;99349.56;5071661;28;20029;-65
2021/12/31 22:33:47;;;;;;;22.67;13.87;;;;;;;9.02;100.00;99350.84;5071162;28;20028;-65
2021/12/31 22:36:13;;;;;;;32.37;19.03;;;;;;;9.13;100.00;99354.91;5072551;28;20534;-65
2021/12/31 22:38:38;;;;;;;33.97;19.53;;;;;;;9.15;100.00;99366.22;5072480;28;20029;-65
2021/12/31 22:41:04;;;;;;;27.40;17.17;;;;;;;9.17;100.00;99377.53;5072691;28;20032;-65
2021/12/31 22:43:29;;;;;;;28.17;15.67;;;;;;;9.25;100.00;99375.59;5072534;28;20028;-65
2021/12/31 22:45:55;;;;;;;25.20;15.37;;;;;;;9.26;100.00;99379.09;5072405;28;20025;-65
2021/12/31 22:48:20;;;;;;;29.67;17.80;;;;;;;9.23;100.00;99385.63;5072339;28;20398;-65
2021/12/31 22:50:46;;;;;;;28.80;16.43;;;;;;;9.27;100.00;99383.44;5072124;28;20046;-64
2021/12/31 22:53:11;;;;;;;28.93;17.13;;;;;;;9.20;100.00;99377.19;5072269;28;20040;-65
2021/12/31 22:55:37;;;;;;;30.73;19.80;;;;;;;9.18;100.00;99384.53;5072478;28;20048;-65
2021/12/31 22:58:03;;;;;;;76.70;46.17;;;;;;;9.15;100.00;99382.22;5072009;28;20126;-65
2021/12/31 23:00:51;;;;;;;31.47;18.97;;;;;;;9.31;100.00;99382.91;5072023;28;20028;-65
2021/12/31 23:03:17;;;;;;;148.30;89.03;;;;;;;9.29;100.00;99392.91;5068348;28;20042;-65
2021/12/31 23:05:42;;;;;;;195.57;118.83;;;;;;;9.35;100.00;99384.16;5071730;28;20029;-65
2021/12/31 23:08:08;;;;;;;80.03;48.70;;;;;;;9.49;100.00;99397.69;5071947;28;20059;-65
2021/12/31 23:10:33;;;;;;;65.50;40.67;;;;;;;9.56;100.00;99396.81;5071609;28;20043;-64
2021/12/31 23:12:59;;;;;;;73.60;48.03;;;;;;;9.54;100.00;99411.34;5072082;28;20035;-65
2021/12/31 23:15:24;;;;;;;77.60;49.20;;;;;;;9.48;100.00;99404.03;5071843;28;20782;-65
2021/12/31 23:17:51;;;;;;;52.57;32.10;;;;;;;9.42;100.00;99409.13;5071656;28;20408;-65
2021/12/31 23:20:18;;;;;;;45.70;28.90;;;;;;;9.45;100.00;99413.25;5071828;28;20115;-64
2021/12/31 23:22:44;;;;;;;57.03;37.47;;;;;;;9.44;100.00;99412.44;5071505;28;20029;-65
2021/12/31 23:25:09;;;;;;;53.53;34.00;;;;;;;9.45;100.00;99415.94;5071729;28;20055;-65
2021/12/31 23:27:48;;;;;;;39.27;23.33;;;;;;;9.46;100.00;99422.91;5071649;28;20108;-65
2021/12/31 23:30:13;;;;;;;45.30;29.10;;;;;;;9.41;100.00;99414.63;5071481;28;20017;-65
2021/12/31 23:32:39;;;;;;;35.73;22.53;;;;;;;9.57;100.00;99418.97;5071522;28;20056;-65
2021/12/31 23:35:05;;;;;;;39.50;23.90;;;;;;;9.67;100.00;99419.53;5071557;28;20028;-65
2021/12/31 23:37:31;;;;;;;28.67;18.33;;;;;;;9.81;100.00;99421.34;5071360;28;20633;-66
2021/12/31 23:40:00;;;;;;;15.33;10.50;;;;;;;10.08;100.00;99423.34;5071467;28;20035;-65
2021/12/31 23:42:39;;;;;;;11.33;7.40;;;;;;;10.45;100.00;99422.41;5070291;28;20653;-65
2021/12/31 23:45:08;;;;;;;12.93;7.97;;;;;;;10.43;100.00;99427.09;5069854;28;20028;-64
2021/12/31 23:47:35;;;;;;;25.00;8.97;;;;;;;10.43;100.00;99431.63;5071236;28;20461;-64
2021/12/31 23:50:01;;;;;;;15.07;9.50;;;;;;;10.41;100.00;99433.63;5071272;28;20028;-65
2021/12/31 23:52:27;;;;;;;12.57;7.77;;;;;;;10.57;100.00;99441.44;5071244;28;20028;-65
2021/12/31 23:54:54;;;;;;;19.47;11.67;;;;;;;10.58;100.00;99436.91;5071298;28;20039;-65
2021/12/31 23:57:23;;;;;;;14.67;9.03;;;;;;;10.55;100.00;99438.13;5071430;28;20362;-65
2021/12/31 23:59:49;;;;;;;14.67;9.03;;;;;;;10.52;100.00;99438.50;5071217;28;20035;-64
